METAR AND TAF INFORMATION
METAR FOR LEBB
ADDS - METARS form results

(2312 UTC 28 January 2023)
Data provider http://aviationweather.gov/metar/data/
 
METAR text: LEBB 282300Z AUTO 00000KT 9999 -RA BKN030 BKN038 OVC056 04/04 Q1029
Conditions at: LEBB (BILBAO/SONDICA , ES) observed 2300 UTC 28 January 2023
Temperature: 4.0°C (39°F)
Dewpoint: 4.0°C (39°F) [RH = 100%]
Pressure (altimeter): 30.38 inches Hg (1029.0 mb)
Winds: calm
Visibility: 6 or more miles (10+ km)
Ceiling: 3000 feet AGL
Clouds: broken clouds at 3000 feet AGL
broken clouds at 3800 feet AGL
overcast cloud deck at 5600 feet AGL
Weather: -RA  (light rain)

METAR text: LEBB 282230Z VRB02KT 9999 -RA FEW020 SCT028 BKN040 04/04 Q1029 RERA TEMPO RA
Conditions at: LEBB (BILBAO/SONDICA , ES) observed 2230 UTC 28 January 2023
Temperature: 4.0°C (39°F)
Dewpoint: 4.0°C (39°F) [RH = 100%]
Pressure (altimeter): 30.38 inches Hg (1029.0 mb)
Winds: variable direction winds at 2 MPH (2 knots; 1.0 m/s)
Visibility: 6 or more miles (10+ km)
Ceiling: 4000 feet AGL
Clouds: few clouds at 2000 feet AGL
scattered clouds at 2800 feet AGL
broken clouds at 4000 feet AGL
Weather: -RA  (light rain)

METAR text: LEBB 282216Z 29005KT 270V340 8000 -RA SCT020 BKN030 04/04 Q1029 RERA TEMPO RA
Conditions at: LEBB (BILBAO/SONDICA , ES) observed 2216 UTC 28 January 2023
Temperature: 4.0°C (39°F)
Dewpoint: 4.0°C (39°F) [RH = 100%]
Pressure (altimeter): 30.38 inches Hg (1029.0 mb)
Winds: from the WNW (290 degrees) at 6 MPH (5 knots; 2.6 m/s)
Visibility: 5 miles ( 8 km)
Ceiling: 3000 feet AGL
Clouds: scattered clouds at 2000 feet AGL
broken clouds at 3000 feet AGL
Weather: -RA  (light rain)

Forecast for: LEBB (BILBAO/SONDICA , ES)
Text: TAF LEBB 281700Z 2818/2918 02008KT 9999 SCT020 BKN035 TX08/2912Z TN03/2906Z
Forecast period: 1800 UTC 28 January 2023 to 1800 UTC 29 January 2023
Forecast type: FROM: standard forecast or significant change
Winds: from the NNE (20 degrees) at 9 MPH (8 knots; 4.1 m/s)
Visibility: 6 or more miles (10+ km)
Ceiling: 3500 feet AGL
Clouds: scattered clouds at 2000 feet AGL
broken clouds at 3500 feet AGL
Weather: no significant weather forecast for this period
Text: PROB40
Forecast period: 1800 UTC 28 January 2023 to 0800 UTC 29 January 2023
Forecast type: TEMPORARY: The following changes expected for less than half the time period
Visibility: 1.86 miles (2.99 km)
Ceiling: 1000 feet AGL
Clouds: broken clouds at 1000 feet AGL
Weather: RA  (moderate rain)

 AIRPORT MAP

 RUNWAY INFORMATION
Runway 10 Runway length 6562 ft Runway width 148 ft
Runway elevation 116 ft Runway displaced threshold 0 ft Runway heading 97
Runway 28 Runway length 6562 ft Runway width 148 ft
Runway elevation 129 ft Runway displaced threshold 0 ft Runway heading 277
Runway 12 Runway length 8530 ft Runway width 148 ft
Runway elevation 119 ft Runway displaced threshold 0 ft Runway heading 117
Runway 30 Runway length 8530 ft Runway width 148 ft
Runway elevation 128 ft Runway displaced threshold 1509 ft Runway heading 297

 AIRPORT FREQUENCIES
Type APP Name APP Frequency 120.7 MHZ
Type ATIS Name ATIS Frequency 118.825 MHZ
Type GND Name GND Frequency 121.7 MHZ
Type TWR Name TWR Frequency 118.5 MHZ

 AIRPORT NEAR NAVIGATION AIDS
Type VOR-DME Name Bilbao Frequency 115900 KHZ